createdAt,value
2023-04-20T00:00:33.912Z,2.34
2023-04-20T00:03:03.725Z,2.24
2023-04-20T00:05:32.515Z,2.27
2023-04-20T00:08:02.246Z,2.22
2023-04-20T00:10:30.775Z,2.18
2023-04-20T00:12:58.964Z,0.85
2023-04-20T00:15:27.153Z,2.19
2023-04-20T00:17:55.341Z,2.36
2023-04-20T00:20:25.564Z,2.05
2023-04-20T00:22:53.802Z,2.19
2023-04-20T00:25:22.205Z,2.28
2023-04-20T00:27:50.367Z,2.18
2023-04-20T00:30:18.598Z,2.20
2023-04-20T00:32:46.853Z,2.11
2023-04-20T00:35:15.734Z,1.75
2023-04-20T00:37:45.311Z,2.05
2023-04-20T00:40:13.816Z,1.73
2023-04-20T00:42:42.343Z,1.58
2023-04-20T00:45:11.576Z,1.80
2023-04-20T00:47:40.097Z,1.70
2023-04-20T00:50:10.763Z,1.65
2023-04-20T00:52:41.102Z,1.46
2023-04-20T00:55:11.526Z,1.49
2023-04-20T00:57:39.979Z,1.57
2023-04-20T01:00:11.026Z,1.43
2023-04-20T01:02:39.378Z,1.51
2023-04-20T01:05:10.352Z,1.44
2023-04-20T01:07:38.577Z,1.25
2023-04-20T01:10:10.350Z,1.20
2023-04-20T01:12:41.385Z,0.87
2023-04-20T01:15:11.908Z,0.86
2023-04-20T01:17:48.245Z,0.85
2023-04-20T01:20:16.737Z,0.88
2023-04-20T01:22:48.224Z,1.16
2023-04-20T01:25:17.288Z,1.17
2023-04-20T01:27:45.918Z,1.26
2023-04-20T01:30:14.751Z,1.36
2023-04-20T01:32:43.004Z,1.84
2023-04-20T01:35:11.654Z,1.55
2023-04-20T01:37:40.635Z,1.62
2023-04-20T01:40:13.497Z,1.78
2023-04-20T01:42:42.140Z,1.58
2023-04-20T01:45:11.304Z,1.58
2023-04-20T01:47:39.572Z,1.49
2023-04-20T01:50:09.597Z,1.62
2023-04-20T01:52:37.859Z,1.48
2023-04-20T01:55:07.578Z,1.36
2023-04-20T01:57:37.297Z,1.24
2023-04-20T02:00:08.573Z,1.16
2023-04-20T02:02:42.540Z,1.24
2023-04-20T02:05:25.179Z,1.38
2023-04-20T02:07:53.748Z,1.25
2023-04-20T02:10:22.505Z,1.35
2023-04-20T02:12:52.190Z,1.32
2023-04-20T02:15:20.478Z,1.15
2023-04-20T02:17:52.277Z,0.99
2023-04-20T02:20:21.260Z,1.01
2023-04-20T02:22:49.572Z,0.91
2023-04-20T02:25:18.585Z,0.05
2023-04-20T02:27:46.861Z,1.10
2023-04-20T02:30:16.651Z,0.86
2023-04-20T02:32:45.099Z,0.82
2023-04-20T02:35:13.419Z,1.02
2023-04-20T02:37:44.608Z,0.92
2023-04-20T02:40:14.604Z,1.05
2023-04-20T02:42:43.020Z,0.87
2023-04-20T02:45:13.310Z,0.83
2023-04-20T02:47:45.722Z,0.88
2023-04-20T02:50:15.732Z,0.93
2023-04-20T02:53:06.711Z,0.93
2023-04-20T02:55:37.554Z,0.98
2023-04-20T02:58:15.456Z,0.78
2023-04-20T03:01:05.031Z,0.61
2023-04-20T03:03:35.608Z,0.57
2023-04-20T03:06:06.367Z,0.15
2023-04-20T03:08:35.840Z,-0.10
2023-04-20T03:11:20.886Z,-0.08
2023-04-20T03:13:49.124Z,-0.13
2023-04-20T03:16:18.237Z,0.28
2023-04-20T03:18:51.829Z,0.32
2023-04-20T03:21:20.704Z,0.27
2023-04-20T03:23:49.643Z,0.45
2023-04-20T03:26:18.642Z,0.53
2023-04-20T03:29:12.788Z,0.43
2023-04-20T03:31:41.537Z,0.23
2023-04-20T03:34:13.220Z,0.25
2023-04-20T03:36:41.496Z,0.32
2023-04-20T03:39:09.770Z,0.37
2023-04-20T03:41:39.366Z,0.49
2023-04-20T03:44:08.057Z,0.45
2023-04-20T03:46:38.370Z,0.53
2023-04-20T03:49:06.861Z,0.58
2023-04-20T03:51:36.487Z,0.78
2023-04-20T03:54:07.158Z,0.56
2023-04-20T03:56:35.849Z,0.82
2023-04-20T03:59:04.149Z,0.76
2023-04-20T04:01:34.029Z,0.85
2023-04-20T04:04:07.654Z,0.90
2023-04-20T04:06:48.209Z,1.12
2023-04-20T04:09:16.829Z,1.11
2023-04-20T04:11:47.135Z,1.15
2023-04-20T04:14:15.648Z,1.26
2023-04-20T04:16:44.087Z,1.26
2023-04-20T04:19:13.999Z,1.19
2023-04-20T04:21:42.619Z,1.39
2023-04-20T04:24:12.858Z,1.37
2023-04-20T04:26:59.601Z,1.38
2023-04-20T04:29:29.830Z,1.40
2023-04-20T04:32:08.233Z,1.37
2023-04-20T04:34:36.542Z,1.42
2023-04-20T04:37:04.860Z,1.30
2023-04-20T04:39:43.659Z,1.29
2023-04-20T04:42:19.456Z,1.44
2023-04-20T04:44:48.863Z,1.44
2023-04-20T04:47:25.406Z,1.45
2023-04-20T04:49:54.720Z,1.49
2023-04-20T04:52:24.285Z,1.44
2023-04-20T04:54:54.003Z,1.68
2023-04-20T04:57:22.250Z,1.71
2023-04-20T04:59:50.493Z,1.76
2023-04-20T05:02:19.324Z,1.75
2023-04-20T05:04:47.892Z,1.74
2023-04-20T05:07:17.405Z,1.81
2023-04-20T05:09:45.757Z,1.79
2023-04-20T05:12:15.377Z,1.94
2023-04-20T05:14:43.653Z,1.98
2023-04-20T05:17:12.628Z,2.10
2023-04-20T05:19:40.864Z,2.26
2023-04-20T05:22:09.070Z,2.26
2023-04-20T05:24:37.324Z,2.25
2023-04-20T05:27:05.654Z,2.45
2023-04-20T05:29:35.246Z,2.52
2023-04-20T05:32:03.664Z,2.55
2023-04-20T05:34:32.238Z,2.65
2023-04-20T05:37:00.877Z,2.77
2023-04-20T05:39:29.192Z,2.73
2023-04-20T05:41:58.011Z,2.88
2023-04-20T05:44:26.411Z,2.82
2023-04-20T05:46:55.974Z,3.01
2023-04-20T05:49:24.859Z,3.08
2023-04-20T05:51:53.186Z,3.07
2023-04-20T05:54:21.409Z,3.21
2023-04-20T05:56:49.625Z,3.28
2023-04-20T05:59:18.936Z,3.43
2023-04-20T06:01:47.421Z,3.58
2023-04-20T06:04:21.184Z,3.74
2023-04-20T06:06:52.592Z,3.81
2023-04-20T06:09:25.489Z,3.88
2023-04-20T06:11:53.793Z,4.11
2023-04-20T06:14:21.992Z,4.19
2023-04-20T06:16:50.226Z,4.25
2023-04-20T06:19:19.856Z,4.45
2023-04-20T06:21:48.273Z,4.45
2023-04-20T06:24:16.530Z,4.55
2023-04-20T06:26:44.727Z,4.61
2023-04-20T06:29:12.988Z,4.74
2023-04-20T06:31:41.342Z,4.77
2023-04-20T06:34:09.635Z,4.95
2023-04-20T06:36:43.301Z,5.08
2023-04-20T06:39:12.374Z,4.65
2023-04-20T06:41:40.656Z,5.29
2023-04-20T06:44:10.113Z,5.45
2023-04-20T06:46:38.464Z,5.54
2023-04-20T06:49:06.811Z,5.55
2023-04-20T06:51:35.075Z,5.86
2023-04-20T06:54:04.779Z,5.90
2023-04-20T06:56:35.359Z,5.91
2023-04-20T06:59:03.944Z,6.03
2023-04-20T07:01:32.305Z,6.27
2023-04-20T07:04:00.845Z,6.17
2023-04-20T07:06:29.253Z,6.31
2023-04-20T07:08:57.473Z,6.43
2023-04-20T07:11:27.104Z,6.50
2023-04-20T07:13:55.365Z,6.46
2023-04-20T07:16:23.732Z,6.82
2023-04-20T07:18:52.011Z,6.82
2023-04-20T07:21:20.238Z,6.76
2023-04-20T07:23:48.442Z,6.95
2023-04-20T07:26:16.973Z,7.08
2023-04-20T07:28:46.597Z,7.03
2023-04-20T07:31:14.886Z,7.21
2023-04-20T07:33:43.508Z,7.27
2023-04-20T07:36:11.963Z,7.28
2023-04-20T07:38:40.252Z,7.35
2023-04-20T07:41:11.011Z,7.19
2023-04-20T07:43:39.830Z,6.36
2023-04-20T07:46:10.556Z,7.24
2023-04-20T07:48:39.409Z,7.30
2023-04-20T07:51:07.798Z,7.16
2023-04-20T07:53:36.055Z,7.11
2023-04-20T07:56:04.288Z,6.99
2023-04-20T07:58:32.560Z,6.80
2023-04-20T08:01:00.831Z,6.57
2023-04-20T08:03:30.631Z,6.49
2023-04-20T08:05:59.191Z,6.58
2023-04-20T08:08:27.517Z,6.48
2023-04-20T08:10:58.556Z,6.63
2023-04-20T08:13:27.603Z,6.64
2023-04-20T08:15:56.053Z,6.64
2023-04-20T08:18:24.396Z,6.49
2023-04-20T08:20:54.231Z,6.53
2023-04-20T08:23:27.708Z,6.70
2023-04-20T08:25:56.235Z,6.23
2023-04-20T08:28:33.460Z,6.74
2023-04-20T08:31:02.671Z,6.87
2023-04-20T08:33:31.193Z,6.89
2023-04-20T08:36:00.821Z,6.89
2023-04-20T08:38:33.945Z,6.89
2023-04-20T08:41:03.131Z,6.86
2023-04-20T08:43:32.276Z,7.44
2023-04-20T08:46:02.798Z,6.32
2023-04-20T08:48:36.421Z,7.17
2023-04-20T08:51:07.391Z,7.27
2023-04-20T08:53:35.715Z,7.22
2023-04-20T08:56:04.243Z,7.35
2023-04-20T08:58:33.803Z,7.40
2023-04-20T09:01:02.150Z,7.43
2023-04-20T09:03:35.912Z,7.49
2023-04-20T09:06:07.103Z,7.45
2023-04-20T09:08:41.350Z,7.49
2023-04-20T09:11:21.980Z,7.31
2023-04-20T09:14:01.309Z,7.42
2023-04-20T09:16:30.366Z,7.45
2023-04-20T09:18:59.273Z,7.41
2023-04-20T09:21:30.557Z,7.58
2023-04-20T09:24:00.644Z,7.36
2023-04-20T09:26:29.432Z,7.46
2023-04-20T09:28:57.705Z,7.42
2023-04-20T09:31:25.958Z,7.41
2023-04-20T09:33:58.669Z,7.08
2023-04-20T09:36:38.906Z,7.58
2023-04-20T09:39:10.721Z,7.69
2023-04-20T09:41:40.749Z,7.73
2023-04-20T09:44:10.373Z,7.99
2023-04-20T09:46:41.516Z,7.47
2023-04-20T09:49:11.705Z,8.42
2023-04-20T09:51:45.177Z,8.56
2023-04-20T09:54:15.953Z,8.56
2023-04-20T09:56:44.732Z,8.85
2023-04-20T09:59:14.113Z,9.03
2023-04-20T10:01:42.736Z,9.07
2023-04-20T10:04:14.500Z,9.10
2023-04-20T10:06:55.876Z,9.18
2023-04-20T10:09:26.946Z,9.38
2023-04-20T10:12:06.976Z,9.38
2023-04-20T10:14:35.664Z,9.28
2023-04-20T10:17:07.606Z,9.13
2023-04-20T10:19:43.688Z,9.11
2023-04-20T10:22:26.786Z,9.03
2023-04-20T10:24:55.395Z,8.94
2023-04-20T10:27:24.068Z,9.19
2023-04-20T10:29:52.360Z,9.28
2023-04-20T10:32:25.622Z,9.25
2023-04-20T10:35:04.924Z,9.28
2023-04-20T10:37:35.373Z,9.15
2023-04-20T10:40:07.421Z,9.29
2023-04-20T10:42:44.103Z,9.11
2023-04-20T10:45:13.211Z,9.12
2023-04-20T10:47:41.829Z,9.28
2023-04-20T10:50:12.421Z,9.51
2023-04-20T10:52:44.745Z,9.66
2023-04-20T10:55:25.031Z,9.58
2023-04-20T10:57:53.924Z,9.58
2023-04-20T11:00:25.659Z,9.56
2023-04-20T11:02:56.439Z,9.68
2023-04-20T11:05:28.151Z,9.71
2023-04-20T11:07:59.534Z,9.68
2023-04-20T11:10:39.995Z,9.75
2023-04-20T11:13:08.654Z,9.00
2023-04-20T11:15:37.304Z,9.84
2023-04-20T11:18:09.276Z,9.94
2023-04-20T11:20:38.264Z,10.13
2023-04-20T11:23:07.868Z,10.09
2023-04-20T11:25:36.155Z,10.09
2023-04-20T11:28:09.051Z,9.94
2023-04-20T11:30:41.419Z,8.87
2023-04-20T11:33:10.521Z,9.52
2023-04-20T11:35:40.064Z,9.44
2023-04-20T11:38:10.170Z,9.52
2023-04-20T11:40:38.433Z,9.31
2023-04-20T11:43:06.874Z,9.23
2023-04-20T11:45:36.513Z,9.17
2023-04-20T11:48:06.832Z,9.23
2023-04-20T11:50:35.238Z,9.03
2023-04-20T11:53:03.462Z,9.08
2023-04-20T11:55:33.084Z,9.11
2023-04-20T11:58:01.296Z,9.18
2023-04-20T12:00:30.211Z,9.14
2023-04-20T12:02:59.955Z,9.09
2023-04-20T12:05:28.947Z,9.20
2023-04-20T12:08:00.096Z,9.03
2023-04-20T12:10:57.989Z,8.87
2023-04-20T12:13:26.921Z,8.83
2023-04-20T12:15:55.155Z,8.79
2023-04-20T12:18:23.407Z,8.80
2023-04-20T12:20:51.617Z,8.67
2023-04-20T12:23:20.368Z,8.72
2023-04-20T12:25:49.401Z,8.55
2023-04-20T12:28:19.155Z,8.51
2023-04-20T12:30:47.528Z,8.32
2023-04-20T12:33:16.063Z,8.37
2023-04-20T12:35:45.159Z,7.50
2023-04-20T12:38:14.654Z,8.43
2023-04-20T12:40:43.108Z,8.37
2023-04-20T12:43:11.560Z,8.34
2023-04-20T12:45:41.135Z,8.28
2023-04-20T12:48:09.791Z,8.25
2023-04-20T12:50:38.007Z,8.23
2023-04-20T12:53:06.657Z,8.12
2023-04-20T12:55:35.025Z,8.12
2023-04-20T12:58:03.284Z,8.02
2023-04-20T13:00:31.540Z,8.13
2023-04-20T13:03:01.499Z,8.04
2023-04-20T13:05:30.040Z,8.07
2023-04-20T13:07:58.256Z,8.20
2023-04-20T13:10:26.713Z,8.27
2023-04-20T13:12:56.011Z,8.24
2023-04-20T13:15:37.539Z,8.02
2023-04-20T13:18:09.739Z,8.11
2023-04-20T13:20:38.270Z,8.32
2023-04-20T13:23:06.626Z,8.27
2023-04-20T13:25:35.245Z,8.34
2023-04-20T13:28:05.121Z,7.74
2023-04-20T13:30:34.144Z,8.34
2023-04-20T13:33:02.454Z,8.35
2023-04-20T13:35:32.439Z,8.28
2023-04-20T13:38:00.791Z,8.22
2023-04-20T13:40:29.243Z,8.19
2023-04-20T13:42:58.165Z,8.07
2023-04-20T13:45:27.977Z,8.07
2023-04-20T13:47:56.405Z,8.08
2023-04-20T13:50:24.779Z,8.21
2023-04-20T13:52:54.364Z,8.39
2023-04-20T13:55:23.831Z,8.49
2023-04-20T13:57:53.539Z,8.66
2023-04-20T14:00:23.647Z,8.88
2023-04-20T14:02:52.045Z,8.77
2023-04-20T14:05:22.371Z,8.72
2023-04-20T14:07:50.613Z,8.66
2023-04-20T14:10:27.023Z,8.68
2023-04-20T14:12:55.453Z,8.82
2023-04-20T14:15:23.685Z,8.70
2023-04-20T14:17:52.791Z,8.69
2023-04-20T14:20:21.416Z,8.67
2023-04-20T14:22:49.651Z,8.55
2023-04-20T14:25:18.090Z,8.79
2023-04-20T14:27:47.664Z,8.63
2023-04-20T14:30:16.371Z,7.67
2023-04-20T14:32:56.043Z,8.60
2023-04-20T14:35:26.073Z,8.58
2023-04-20T14:37:54.467Z,8.60
2023-04-20T14:40:23.077Z,8.69
2023-04-20T14:42:52.648Z,8.60
2023-04-20T14:45:21.369Z,8.65
2023-04-20T14:47:54.755Z,8.46
2023-04-20T14:50:23.580Z,8.51
2023-04-20T14:52:52.877Z,8.60
2023-04-20T14:55:23.467Z,8.50
2023-04-20T14:57:56.791Z,8.53
2023-04-20T15:00:25.652Z,8.54
2023-04-20T15:02:56.319Z,8.54
2023-04-20T15:05:26.089Z,8.62
2023-04-20T15:07:54.407Z,8.55
2023-04-20T15:10:22.839Z,8.71
2023-04-20T15:12:51.091Z,8.68
2023-04-20T15:15:20.986Z,8.71
2023-04-20T15:17:49.513Z,8.64
2023-04-20T15:20:17.799Z,8.61
2023-04-20T15:22:46.070Z,8.66
2023-04-20T15:25:14.371Z,8.74
2023-04-20T15:27:42.580Z,8.67
2023-04-20T15:30:12.112Z,8.69
2023-04-20T15:32:41.789Z,8.69
2023-04-20T15:35:10.321Z,8.66
2023-04-20T15:37:38.520Z,8.64
2023-04-20T15:40:08.756Z,8.50
2023-04-20T15:42:36.997Z,8.52
2023-04-20T15:45:06.102Z,8.63
2023-04-20T15:47:34.357Z,8.62
2023-04-20T15:50:04.022Z,8.50
2023-04-20T15:52:32.862Z,8.59
2023-04-20T15:55:01.104Z,8.57
2023-04-20T15:57:30.829Z,8.67
2023-04-20T15:59:59.375Z,8.69
2023-04-20T16:02:28.399Z,8.51
2023-04-20T16:04:57.238Z,8.52
2023-04-20T16:07:27.390Z,8.48
2023-04-20T16:09:59.788Z,8.49
2023-04-20T16:12:27.991Z,8.39
2023-04-20T16:14:57.261Z,8.40
2023-04-20T16:17:25.786Z,8.33
2023-04-20T16:19:54.101Z,8.30
2023-04-20T16:22:22.661Z,8.19
2023-04-20T16:24:52.232Z,8.27
2023-04-20T16:27:20.467Z,8.24
2023-04-20T16:29:48.713Z,8.20
2023-04-20T16:32:17.013Z,8.25
2023-04-20T16:34:45.440Z,8.16
2023-04-20T16:37:13.720Z,8.20
2023-04-20T16:39:42.216Z,8.06
2023-04-20T16:42:11.794Z,8.09
2023-04-20T16:44:41.821Z,8.09
2023-04-20T16:47:10.412Z,8.18
2023-04-20T16:49:38.702Z,8.02
2023-04-20T16:52:06.971Z,7.75
2023-04-20T16:54:35.310Z,7.50
2023-04-20T16:57:03.633Z,8.00
2023-04-20T16:59:33.242Z,8.03
2023-04-20T17:02:01.684Z,7.94
2023-04-20T17:04:30.097Z,8.08
2023-04-20T17:06:58.459Z,8.05
2023-04-20T17:09:26.847Z,8.00
2023-04-20T17:11:56.238Z,8.08
2023-04-20T17:14:24.543Z,7.85
2023-04-20T17:16:56.522Z,7.35
2023-04-20T17:19:25.328Z,7.93
2023-04-20T17:21:53.904Z,7.92
2023-04-20T17:24:22.218Z,7.88
2023-04-20T17:26:50.622Z,7.85
2023-04-20T17:29:18.873Z,7.59
2023-04-20T17:31:47.755Z,6.36
2023-04-20T17:34:18.994Z,7.68
2023-04-20T17:36:47.758Z,7.61
2023-04-20T17:39:16.245Z,7.66
2023-04-20T17:41:45.102Z,7.59
2023-04-20T17:44:13.422Z,7.61
2023-04-20T17:46:41.945Z,7.15
2023-04-20T17:49:10.187Z,7.58
2023-04-20T17:51:39.863Z,7.75
2023-04-20T17:54:08.196Z,7.61
2023-04-20T17:56:36.557Z,7.68
2023-04-20T17:59:05.472Z,7.59
2023-04-20T18:01:57.700Z,7.58
2023-04-20T18:04:26.547Z,7.60
2023-04-20T18:06:56.427Z,6.49
2023-04-20T18:09:24.822Z,7.15
2023-04-20T18:11:53.788Z,7.55
2023-04-20T18:14:22.116Z,7.50
2023-04-20T18:16:52.084Z,7.60
2023-04-20T18:19:20.429Z,7.49
2023-04-20T18:21:49.498Z,7.44
2023-04-20T18:24:19.381Z,7.61
2023-04-20T18:26:47.769Z,7.15
2023-04-20T18:29:16.190Z,7.17
2023-04-20T18:31:46.495Z,7.03
2023-04-20T18:34:16.624Z,7.29
2023-04-20T18:36:45.022Z,6.05
2023-04-20T18:39:13.303Z,6.44
2023-04-20T18:41:42.966Z,6.79
2023-04-20T18:44:11.742Z,6.70
2023-04-20T18:46:42.124Z,6.28
2023-04-20T18:49:11.596Z,6.57
2023-04-20T18:51:39.947Z,6.54
2023-04-20T18:54:08.204Z,6.46
2023-04-20T18:56:38.585Z,6.40
2023-04-20T18:59:09.468Z,5.95
2023-04-20T19:01:40.705Z,6.38
2023-04-20T19:04:09.816Z,6.25
2023-04-20T19:06:38.220Z,6.18
2023-04-20T19:09:08.262Z,6.46
2023-04-20T19:11:36.950Z,5.76
2023-04-20T19:14:05.383Z,6.51
2023-04-20T19:16:35.681Z,6.11
2023-04-20T19:19:04.195Z,6.33
2023-04-20T19:21:33.184Z,6.42
2023-04-20T19:24:01.474Z,6.34
2023-04-20T19:26:29.877Z,5.74
2023-04-20T19:28:59.918Z,6.33
2023-04-20T19:31:33.986Z,6.48
2023-04-20T19:34:04.220Z,6.56
2023-04-20T19:36:32.787Z,6.52
2023-04-20T19:39:01.261Z,7.13
2023-04-20T19:41:29.581Z,6.61
2023-04-20T19:43:59.201Z,6.72
2023-04-20T19:46:27.540Z,6.60
2023-04-20T19:48:55.843Z,6.63
2023-04-20T19:51:26.139Z,6.28
2023-04-20T19:53:55.166Z,6.57
2023-04-20T19:56:23.616Z,6.73
2023-04-20T19:58:52.083Z,6.61
2023-04-20T20:01:45.616Z,6.69
2023-04-20T20:04:17.337Z,6.76
2023-04-20T20:06:50.021Z,6.86
2023-04-20T20:09:20.764Z,6.81
2023-04-20T20:11:50.905Z,6.80
2023-04-20T20:14:19.465Z,5.86
2023-04-20T20:16:48.130Z,6.80
2023-04-20T20:19:18.214Z,6.47
2023-04-20T20:21:48.154Z,6.70
2023-04-20T20:24:16.522Z,6.77
2023-04-20T20:26:44.865Z,6.82
2023-04-20T20:29:13.143Z,6.39
2023-04-20T20:31:41.603Z,6.80
2023-04-20T20:34:10.029Z,6.72
2023-04-20T20:36:38.387Z,6.43
2023-04-20T20:39:31.713Z,6.30
2023-04-20T20:42:00.015Z,6.76
2023-04-20T20:44:29.750Z,6.44
2023-04-20T20:46:58.226Z,6.40
2023-04-20T20:49:26.585Z,6.76
2023-04-20T20:51:54.898Z,6.62
2023-04-20T20:54:24.514Z,6.65
2023-04-20T20:56:52.779Z,6.72
2023-04-20T20:59:21.179Z,6.70
2023-04-20T21:01:49.633Z,6.74
2023-04-20T21:04:17.963Z,6.71
2023-04-20T21:06:46.237Z,6.81
2023-04-20T21:09:15.469Z,6.69
2023-04-20T21:11:45.093Z,6.78
2023-04-20T21:14:13.293Z,6.77
2023-04-20T21:16:41.558Z,6.79
2023-04-20T21:19:10.661Z,6.77
2023-04-20T21:21:38.907Z,6.74
2023-04-20T21:24:07.621Z,6.75
2023-04-20T21:26:35.987Z,6.74
2023-04-20T21:29:05.844Z,6.80
2023-04-20T21:31:34.679Z,6.67
2023-04-20T21:34:02.992Z,6.67
2023-04-20T21:36:32.639Z,6.73
2023-04-20T21:39:00.847Z,6.67
2023-04-20T21:41:32.131Z,7.23
2023-04-20T21:44:00.596Z,6.72
2023-04-20T21:46:30.394Z,6.49
2023-04-20T21:48:58.967Z,6.46
2023-04-20T21:51:28.760Z,6.24
2023-04-20T21:53:56.976Z,6.38
2023-04-20T21:56:25.215Z,6.50
2023-04-20T21:58:53.528Z,6.40
2023-04-20T22:01:26.199Z,6.47
2023-04-20T22:03:58.124Z,6.55
2023-04-20T22:06:26.857Z,6.39
2023-04-20T22:08:55.117Z,6.58
2023-04-20T22:11:23.357Z,6.43
2023-04-20T22:13:51.777Z,6.51
2023-04-20T22:16:21.068Z,6.59
2023-04-20T22:18:49.820Z,6.49
2023-04-20T22:21:19.383Z,6.28
2023-04-20T22:23:47.617Z,6.28
2023-04-20T22:26:16.832Z,6.20
2023-04-20T22:28:45.442Z,6.08
2023-04-20T22:31:14.186Z,6.01
2023-04-20T22:33:42.589Z,6.03
2023-04-20T22:36:11.375Z,5.94
2023-04-20T22:38:41.099Z,5.99
2023-04-20T22:41:09.377Z,6.06
2023-04-20T22:43:37.559Z,5.96
2023-04-20T22:46:05.976Z,5.96
2023-04-20T22:48:34.193Z,6.09
2023-04-20T22:51:02.903Z,6.21
2023-04-20T22:53:31.091Z,6.07
2023-04-20T22:56:06.139Z,6.25
2023-04-20T22:58:34.466Z,6.24
2023-04-20T23:01:02.817Z,6.12
2023-04-20T23:03:31.254Z,6.30
2023-04-20T23:05:59.964Z,6.36
2023-04-20T23:08:28.663Z,6.36
2023-04-20T23:10:56.979Z,6.20
2023-04-20T23:13:27.349Z,6.34
2023-04-20T23:15:55.759Z,6.33
2023-04-20T23:18:23.995Z,6.25
2023-04-20T23:20:52.222Z,6.37
2023-04-20T23:23:20.425Z,6.41
2023-04-20T23:25:49.473Z,6.28
2023-04-20T23:28:17.642Z,6.36
2023-04-20T23:30:47.220Z,6.30
2023-04-20T23:33:15.850Z,6.30
2023-04-20T23:35:44.103Z,6.30
2023-04-20T23:38:12.310Z,6.27
2023-04-20T23:40:40.568Z,6.22
2023-04-20T23:43:08.775Z,6.34
2023-04-20T23:45:37.093Z,6.26
2023-04-20T23:48:07.581Z,6.29
2023-04-20T23:50:37.016Z,6.29
2023-04-20T23:53:05.742Z,6.21
2023-04-20T23:55:34.132Z,6.30
2023-04-20T23:58:02.334Z,6.28
